首页
METAR-TAF:

METAR-TAF

机场 :

奥斯滕德, 比利时

纬度: 51-12N, 经度: 002-52E, 海拔: 4米

当前天气观测

该预报发布于20分钟前的21:20 UTC
风速5节,风向南转西南
温度 16°C
湿度 77%
气压 1023 hPa
能见度10公里或以上
1500米以下无云,无积雨云

METAR: EBOS 212120Z 20005KT CAVOK 16/12 Q1023 NOSIG

时间: 23:40 (21:40 UTC)

预报

该预报发布于4小时和20分钟前的17:20 UTC
预报有效从21日的 18点(UTC)到 22日的 24点(UTC)
风速10节,风向西转西北
能见度10公里或以上
少量云层高于3800英尺
成为
从 21日的 19点(UTC)到 21日的 21点(UTC)
风速6节,风向南转西南
几率 30% :
短暂存在
从 22日的 06点(UTC)到 22日的 08点(UTC)
多云层高于800英尺
几率 40% :
短暂存在
从 22日的 12点(UTC)到 22日的 18点(UTC)
风速10节,风向西

TAF: EBOS 211720Z 2118/2224 29010KT 9999 FEW038 BECMG 2119/2121 20006KT PROB30 TEMPO 2206/2208 BKN008 PROB40 TEMPO 2212/2218 27010KT

超过4000个机场的气象观测和天气预报(METAR&TAF报告)。

可查询的气象台以黄色和红色小点在地图上表示。

将鼠标移到小点上方,可查看气象台名称。

然后点击查看天气观测和预报。

如需切换地图:点击带黑十字的绿色按钮放大地图;点击带横线的绿色按钮缩小地图;或者点击绿色箭头查看邻近地区的地图。


METAR-TAF: